sensor_id;sensor_type;location;lat;lon;timestamp;temperature;humidity
19330;DHT22;9799;48.214;16.388;2023-08-07T00:02:40;16.40;99.90
19330;DHT22;9799;48.214;16.388;2023-08-07T00:06:02;16.40;99.90
19330;DHT22;9799;48.214;16.388;2023-08-07T00:09:24;16.40;99.90
19330;DHT22;9799;48.214;16.388;2023-08-07T00:12:46;16.40;99.90
19330;DHT22;9799;48.214;16.388;2023-08-07T00:16:07;16.40;99.90
19330;DHT22;9799;48.214;16.388;2023-08-07T00:19:30;16.40;99.90
19330;DHT22;9799;48.214;16.388;2023-08-07T00:22:51;16.40;99.90
19330;DHT22;9799;48.214;16.388;2023-08-07T00:26:14;16.40;99.90
19330;DHT22;9799;48.214;16.388;2023-08-07T00:29:35;16.40;99.90
19330;DHT22;9799;48.214;16.388;2023-08-07T00:32:56;16.40;99.90
19330;DHT22;9799;48.214;16.388;2023-08-07T00:36:17;16.50;99.90
19330;DHT22;9799;48.214;16.388;2023-08-07T00:39:38;16.40;99.90
19330;DHT22;9799;48.214;16.388;2023-08-07T00:43:01;16.30;99.90
19330;DHT22;9799;48.214;16.388;2023-08-07T00:46:22;16.40;99.90
19330;DHT22;9799;48.214;16.388;2023-08-07T00:49:43;16.40;99.90
19330;DHT22;9799;48.214;16.388;2023-08-07T00:53:05;16.40;99.90
19330;DHT22;9799;48.214;16.388;2023-08-07T00:56:27;16.30;99.90
19330;DHT22;9799;48.214;16.388;2023-08-07T00:59:50;16.30;99.90
19330;DHT22;9799;48.214;16.388;2023-08-07T01:03:12;16.30;99.90
19330;DHT22;9799;48.214;16.388;2023-08-07T01:06:34;16.30;99.90
19330;DHT22;9799;48.214;16.388;2023-08-07T01:09:55;16.30;99.90
19330;DHT22;9799;48.214;16.388;2023-08-07T01:13:22;16.30;99.90
19330;DHT22;9799;48.214;16.388;2023-08-07T01:16:50;16.30;99.90
19330;DHT22;9799;48.214;16.388;2023-08-07T01:20:13;16.30;99.90
19330;DHT22;9799;48.214;16.388;2023-08-07T01:23:35;16.40;99.90
19330;DHT22;9799;48.214;16.388;2023-08-07T01:26:59;16.40;99.90
19330;DHT22;9799;48.214;16.388;2023-08-07T01:30:26;16.30;99.90
19330;DHT22;9799;48.214;16.388;2023-08-07T01:33:54;16.40;99.90
19330;DHT22;9799;48.214;16.388;2023-08-07T01:37:17;16.30;99.90
19330;DHT22;9799;48.214;16.388;2023-08-07T01:40:42;16.30;99.90
19330;DHT22;9799;48.214;16.388;2023-08-07T01:44:03;16.30;99.90
19330;DHT22;9799;48.214;16.388;2023-08-07T01:47:25;16.30;99.90
19330;DHT22;9799;48.214;16.388;2023-08-07T01:50:46;16.40;99.90
19330;DHT22;9799;48.214;16.388;2023-08-07T01:54:07;16.40;99.90
19330;DHT22;9799;48.214;16.388;2023-08-07T01:57:30;16.30;99.90
19330;DHT22;9799;48.214;16.388;2023-08-07T02:00:51;16.40;99.90
19330;DHT22;9799;48.214;16.388;2023-08-07T02:04:12;16.40;99.90
19330;DHT22;9799;48.214;16.388;2023-08-07T02:07:33;16.40;99.90
19330;DHT22;9799;48.214;16.388;2023-08-07T02:10:54;16.50;99.90
19330;DHT22;9799;48.214;16.388;2023-08-07T02:14:17;16.40;99.90
19330;DHT22;9799;48.214;16.388;2023-08-07T02:17:38;16.40;99.90
19330;DHT22;9799;48.214;16.388;2023-08-07T02:21:01;16.40;99.90
19330;DHT22;9799;48.214;16.388;2023-08-07T02:24:22;16.40;99.90
19330;DHT22;9799;48.214;16.388;2023-08-07T02:27:43;16.40;99.90
19330;DHT22;9799;48.214;16.388;2023-08-07T02:31:05;16.40;99.90
19330;DHT22;9799;48.214;16.388;2023-08-07T02:34:27;16.40;99.90
19330;DHT22;9799;48.214;16.388;2023-08-07T02:37:48;16.40;99.90
19330;DHT22;9799;48.214;16.388;2023-08-07T02:41:09;16.30;99.90
19330;DHT22;9799;48.214;16.388;2023-08-07T02:44:30;16.30;99.90
19330;DHT22;9799;48.214;16.388;2023-08-07T02:47:53;16.30;99.90
19330;DHT22;9799;48.214;16.388;2023-08-07T02:51:14;16.30;99.90
19330;DHT22;9799;48.214;16.388;2023-08-07T02:54:35;16.20;99.90
19330;DHT22;9799;48.214;16.388;2023-08-07T02:57:56;16.20;99.90
19330;DHT22;9799;48.214;16.388;2023-08-07T03:01:17;16.30;99.90
19330;DHT22;9799;48.214;16.388;2023-08-07T03:04:40;16.30;99.90
19330;DHT22;9799;48.214;16.388;2023-08-07T03:08:01;16.30;99.90
19330;DHT22;9799;48.214;16.388;2023-08-07T03:11:22;16.20;99.90
19330;DHT22;9799;48.214;16.388;2023-08-07T03:14:43;16.30;99.90
19330;DHT22;9799;48.214;16.388;2023-08-07T03:18:04;16.20;99.90
19330;DHT22;9799;48.214;16.388;2023-08-07T03:21:27;16.30;99.90
19330;DHT22;9799;48.214;16.388;2023-08-07T03:24:48;16.20;99.90
19330;DHT22;9799;48.214;16.388;2023-08-07T03:28:09;16.20;99.90
19330;DHT22;9799;48.214;16.388;2023-08-07T03:31:30;16.10;99.90
19330;DHT22;9799;48.214;16.388;2023-08-07T03:34:51;16.20;99.90
19330;DHT22;9799;48.214;16.388;2023-08-07T03:38:14;16.20;99.90
19330;DHT22;9799;48.214;16.388;2023-08-07T03:41:35;16.20;99.90
19330;DHT22;9799;48.214;16.388;2023-08-07T03:44:56;16.10;99.90
19330;DHT22;9799;48.214;16.388;2023-08-07T03:48:17;16.00;99.90
19330;DHT22;9799;48.214;16.388;2023-08-07T03:51:38;16.00;99.90
19330;DHT22;9799;48.214;16.388;2023-08-07T03:55:01;15.90;99.90
19330;DHT22;9799;48.214;16.388;2023-08-07T03:58:22;16.00;99.90
19330;DHT22;9799;48.214;16.388;2023-08-07T04:01:43;15.90;99.90
19330;DHT22;9799;48.214;16.388;2023-08-07T04:05:05;15.90;99.90
19330;DHT22;9799;48.214;16.388;2023-08-07T04:08:26;16.00;99.90
19330;DHT22;9799;48.214;16.388;2023-08-07T04:11:48;16.00;99.90
19330;DHT22;9799;48.214;16.388;2023-08-07T04:15:10;16.00;99.90
19330;DHT22;9799;48.214;16.388;2023-08-07T04:18:31;16.00;99.90
19330;DHT22;9799;48.214;16.388;2023-08-07T04:21:52;16.00;99.90
19330;DHT22;9799;48.214;16.388;2023-08-07T04:25:13;16.00;99.90
19330;DHT22;9799;48.214;16.388;2023-08-07T04:28:36;16.00;99.90
19330;DHT22;9799;48.214;16.388;2023-08-07T04:31:57;16.00;99.90
19330;DHT22;9799;48.214;16.388;2023-08-07T04:35:18;16.00;99.90
19330;DHT22;9799;48.214;16.388;2023-08-07T04:38:39;16.00;99.90
19330;DHT22;9799;48.214;16.388;2023-08-07T04:42:00;15.90;99.90
19330;DHT22;9799;48.214;16.388;2023-08-07T04:45:23;15.90;99.90
19330;DHT22;9799;48.214;16.388;2023-08-07T04:48:44;15.90;99.90
19330;DHT22;9799;48.214;16.388;2023-08-07T04:52:07;15.90;99.90
19330;DHT22;9799;48.214;16.388;2023-08-07T04:55:28;15.80;99.90
19330;DHT22;9799;48.214;16.388;2023-08-07T04:58:49;15.80;99.90
19330;DHT22;9799;48.214;16.388;2023-08-07T05:02:12;15.80;99.90
19330;DHT22;9799;48.214;16.388;2023-08-07T05:05:33;15.80;99.90
19330;DHT22;9799;48.214;16.388;2023-08-07T05:08:54;15.80;99.90
19330;DHT22;9799;48.214;16.388;2023-08-07T05:12:15;15.90;99.90
19330;DHT22;9799;48.214;16.388;2023-08-07T05:15:36;15.80;99.90
19330;DHT22;9799;48.214;16.388;2023-08-07T05:18:59;15.80;99.90
19330;DHT22;9799;48.214;16.388;2023-08-07T05:22:20;15.80;99.90
19330;DHT22;9799;48.214;16.388;2023-08-07T05:25:41;15.90;99.90
19330;DHT22;9799;48.214;16.388;2023-08-07T05:29:02;15.90;99.90
19330;DHT22;9799;48.214;16.388;2023-08-07T05:32:23;15.80;99.90
19330;DHT22;9799;48.214;16.388;2023-08-07T05:35:46;15.80;99.90
19330;DHT22;9799;48.214;16.388;2023-08-07T05:39:07;15.70;99.90
19330;DHT22;9799;48.214;16.388;2023-08-07T05:42:28;15.80;99.90
19330;DHT22;9799;48.214;16.388;2023-08-07T05:45:49;15.80;99.90
19330;DHT22;9799;48.214;16.388;2023-08-07T05:49:11;15.80;99.90
19330;DHT22;9799;48.214;16.388;2023-08-07T05:52:33;15.80;99.90
19330;DHT22;9799;48.214;16.388;2023-08-07T05:55:55;15.70;99.90
19330;DHT22;9799;48.214;16.388;2023-08-07T05:59:16;15.80;99.90
19330;DHT22;9799;48.214;16.388;2023-08-07T06:02:37;15.70;99.90
19330;DHT22;9799;48.214;16.388;2023-08-07T06:05:58;15.70;99.90
19330;DHT22;9799;48.214;16.388;2023-08-07T06:09:21;15.70;99.90
19330;DHT22;9799;48.214;16.388;2023-08-07T06:12:42;15.60;99.90
19330;DHT22;9799;48.214;16.388;2023-08-07T06:16:04;15.50;99.90
19330;DHT22;9799;48.214;16.388;2023-08-07T06:19:26;15.50;99.90
19330;DHT22;9799;48.214;16.388;2023-08-07T06:22:48;15.50;99.90
19330;DHT22;9799;48.214;16.388;2023-08-07T06:26:10;15.60;99.90
19330;DHT22;9799;48.214;16.388;2023-08-07T06:29:31;15.60;99.90
19330;DHT22;9799;48.214;16.388;2023-08-07T06:32:53;15.60;99.90
19330;DHT22;9799;48.214;16.388;2023-08-07T06:36:14;15.70;99.90
19330;DHT22;9799;48.214;16.388;2023-08-07T06:39:35;15.90;99.90
19330;DHT22;9799;48.214;16.388;2023-08-07T06:42:57;16.00;99.90
19330;DHT22;9799;48.214;16.388;2023-08-07T06:46:19;16.00;99.90
19330;DHT22;9799;48.214;16.388;2023-08-07T06:49:43;16.00;99.90
19330;DHT22;9799;48.214;16.388;2023-08-07T06:53:05;16.10;99.90
19330;DHT22;9799;48.214;16.388;2023-08-07T06:56:26;16.10;99.90
19330;DHT22;9799;48.214;16.388;2023-08-07T06:59:48;16.10;99.90
19330;DHT22;9799;48.214;16.388;2023-08-07T07:03:09;16.10;99.90
19330;DHT22;9799;48.214;16.388;2023-08-07T07:06:31;16.10;99.90
19330;DHT22;9799;48.214;16.388;2023-08-07T07:09:52;16.10;99.90
19330;DHT22;9799;48.214;16.388;2023-08-07T07:13:13;16.10;99.90
19330;DHT22;9799;48.214;16.388;2023-08-07T07:16:35;16.10;99.90
19330;DHT22;9799;48.214;16.388;2023-08-07T07:19:57;16.00;99.90
19330;DHT22;9799;48.214;16.388;2023-08-07T07:23:19;16.00;99.90
19330;DHT22;9799;48.214;16.388;2023-08-07T07:26:40;16.00;99.90
19330;DHT22;9799;48.214;16.388;2023-08-07T07:30:01;15.90;99.90
19330;DHT22;9799;48.214;16.388;2023-08-07T07:33:23;15.80;99.90
19330;DHT22;9799;48.214;16.388;2023-08-07T07:36:44;15.80;99.90
19330;DHT22;9799;48.214;16.388;2023-08-07T07:40:07;15.80;99.90
19330;DHT22;9799;48.214;16.388;2023-08-07T07:43:28;15.80;99.90
19330;DHT22;9799;48.214;16.388;2023-08-07T07:46:51;15.70;99.90
19330;DHT22;9799;48.214;16.388;2023-08-07T07:50:14;15.60;99.90
19330;DHT22;9799;48.214;16.388;2023-08-07T07:53:35;15.70;99.90
19330;DHT22;9799;48.214;16.388;2023-08-07T07:56:56;15.60;99.90
19330;DHT22;9799;48.214;16.388;2023-08-07T08:00:18;15.60;99.90
19330;DHT22;9799;48.214;16.388;2023-08-07T08:03:39;15.80;99.90
19330;DHT22;9799;48.214;16.388;2023-08-07T08:07:02;15.70;99.90
19330;DHT22;9799;48.214;16.388;2023-08-07T08:10:23;15.70;99.90
19330;DHT22;9799;48.214;16.388;2023-08-07T08:13:45;15.70;99.90
19330;DHT22;9799;48.214;16.388;2023-08-07T08:17:06;15.80;99.90
19330;DHT22;9799;48.214;16.388;2023-08-07T08:20:30;15.80;99.90
19330;DHT22;9799;48.214;16.388;2023-08-07T08:23:54;15.90;99.90
19330;DHT22;9799;48.214;16.388;2023-08-07T08:27:15;15.90;99.90
19330;DHT22;9799;48.214;16.388;2023-08-07T08:30:37;16.00;99.90
19330;DHT22;9799;48.214;16.388;2023-08-07T08:33:58;16.30;99.90
19330;DHT22;9799;48.214;16.388;2023-08-07T08:37:21;16.60;99.90
19330;DHT22;9799;48.214;16.388;2023-08-07T08:40:44;16.60;99.90
19330;DHT22;9799;48.214;16.388;2023-08-07T08:44:06;16.40;99.90
19330;DHT22;9799;48.214;16.388;2023-08-07T08:47:29;16.50;99.90
19330;DHT22;9799;48.214;16.388;2023-08-07T08:50:54;16.70;99.90
19330;DHT22;9799;48.214;16.388;2023-08-07T08:54:16;16.60;99.90
19330;DHT22;9799;48.214;16.388;2023-08-07T08:57:39;16.50;99.90
19330;DHT22;9799;48.214;16.388;2023-08-07T09:01:01;16.30;99.90
19330;DHT22;9799;48.214;16.388;2023-08-07T09:04:22;16.10;99.90
19330;DHT22;9799;48.214;16.388;2023-08-07T09:07:44;15.90;99.90
19330;DHT22;9799;48.214;16.388;2023-08-07T09:11:07;15.80;99.90
19330;DHT22;9799;48.214;16.388;2023-08-07T09:14:33;15.80;99.90
19330;DHT22;9799;48.214;16.388;2023-08-07T09:17:55;15.80;99.90
19330;DHT22;9799;48.214;16.388;2023-08-07T09:21:16;15.70;99.90
19330;DHT22;9799;48.214;16.388;2023-08-07T09:24:38;15.80;99.90
19330;DHT22;9799;48.214;16.388;2023-08-07T09:28:02;15.70;99.90
19330;DHT22;9799;48.214;16.388;2023-08-07T09:31:26;15.70;99.90
19330;DHT22;9799;48.214;16.388;2023-08-07T09:34:49;15.70;99.90
19330;DHT22;9799;48.214;16.388;2023-08-07T09:38:10;15.60;99.90
19330;DHT22;9799;48.214;16.388;2023-08-07T09:41:32;15.60;99.90
19330;DHT22;9799;48.214;16.388;2023-08-07T09:44:54;15.50;99.90
19330;DHT22;9799;48.214;16.388;2023-08-07T09:48:23;15.40;99.90
19330;DHT22;9799;48.214;16.388;2023-08-07T09:51:46;15.30;99.90
19330;DHT22;9799;48.214;16.388;2023-08-07T09:55:07;15.20;99.90
19330;DHT22;9799;48.214;16.388;2023-08-07T09:58:29;15.20;99.90
19330;DHT22;9799;48.214;16.388;2023-08-07T10:01:50;15.30;99.90
19330;DHT22;9799;48.214;16.388;2023-08-07T10:05:13;15.30;99.90
19330;DHT22;9799;48.214;16.388;2023-08-07T10:08:35;15.30;99.90
19330;DHT22;9799;48.214;16.388;2023-08-07T10:11:58;15.40;99.90
19330;DHT22;9799;48.214;16.388;2023-08-07T10:15:20;15.40;99.90
19330;DHT22;9799;48.214;16.388;2023-08-07T10:18:41;15.30;99.90
19330;DHT22;9799;48.214;16.388;2023-08-07T10:22:05;15.30;99.90
19330;DHT22;9799;48.214;16.388;2023-08-07T10:25:27;15.30;99.90
19330;DHT22;9799;48.214;16.388;2023-08-07T10:28:52;15.30;99.90
19330;DHT22;9799;48.214;16.388;2023-08-07T10:32:15;15.10;99.90
19330;DHT22;9799;48.214;16.388;2023-08-07T10:35:44;15.30;99.90
19330;DHT22;9799;48.214;16.388;2023-08-07T10:39:08;15.10;99.90
19330;DHT22;9799;48.214;16.388;2023-08-07T10:42:41;15.10;99.90
19330;DHT22;9799;48.214;16.388;2023-08-07T10:46:11;15.10;99.90
19330;DHT22;9799;48.214;16.388;2023-08-07T10:49:35;15.00;99.90
19330;DHT22;9799;48.214;16.388;2023-08-07T10:52:56;14.90;99.90
19330;DHT22;9799;48.214;16.388;2023-08-07T10:56:29;14.90;99.90
19330;DHT22;9799;48.214;16.388;2023-08-07T10:59:51;14.90;99.90
19330;DHT22;9799;48.214;16.388;2023-08-07T11:03:35;14.80;99.90
19330;DHT22;9799;48.214;16.388;2023-08-07T11:06:56;14.80;99.90
19330;DHT22;9799;48.214;16.388;2023-08-07T11:10:18;14.80;99.90
19330;DHT22;9799;48.214;16.388;2023-08-07T11:13:40;14.90;99.90
19330;DHT22;9799;48.214;16.388;2023-08-07T11:17:02;14.90;99.90
19330;DHT22;9799;48.214;16.388;2023-08-07T11:20:23;14.70;99.90
19330;DHT22;9799;48.214;16.388;2023-08-07T11:23:46;14.90;99.90
19330;DHT22;9799;48.214;16.388;2023-08-07T11:27:08;15.00;99.90
19330;DHT22;9799;48.214;16.388;2023-08-07T11:30:30;14.90;99.90
19330;DHT22;9799;48.214;16.388;2023-08-07T11:33:52;15.00;99.90
19330;DHT22;9799;48.214;16.388;2023-08-07T11:37:15;15.10;99.90
19330;DHT22;9799;48.214;16.388;2023-08-07T11:40:37;15.00;99.90
19330;DHT22;9799;48.214;16.388;2023-08-07T11:43:58;15.00;99.90
19330;DHT22;9799;48.214;16.388;2023-08-07T11:47:21;14.90;99.90
19330;DHT22;9799;48.214;16.388;2023-08-07T11:50:43;14.90;99.90
19330;DHT22;9799;48.214;16.388;2023-08-07T11:54:04;14.90;99.90
19330;DHT22;9799;48.214;16.388;2023-08-07T11:57:25;14.90;99.90
19330;DHT22;9799;48.214;16.388;2023-08-07T12:00:46;14.90;99.90
19330;DHT22;9799;48.214;16.388;2023-08-07T12:04:12;15.00;99.90
19330;DHT22;9799;48.214;16.388;2023-08-07T12:07:33;15.00;99.90
19330;DHT22;9799;48.214;16.388;2023-08-07T12:10:55;15.00;99.90
19330;DHT22;9799;48.214;16.388;2023-08-07T12:14:16;15.00;99.90
19330;DHT22;9799;48.214;16.388;2023-08-07T12:17:38;15.00;99.90
19330;DHT22;9799;48.214;16.388;2023-08-07T12:21:01;15.10;99.90
19330;DHT22;9799;48.214;16.388;2023-08-07T12:24:23;15.20;99.90
19330;DHT22;9799;48.214;16.388;2023-08-07T12:27:44;15.20;99.90
19330;DHT22;9799;48.214;16.388;2023-08-07T12:31:07;15.20;99.90
19330;DHT22;9799;48.214;16.388;2023-08-07T12:34:28;15.20;99.90
19330;DHT22;9799;48.214;16.388;2023-08-07T12:37:51;15.30;99.90
19330;DHT22;9799;48.214;16.388;2023-08-07T12:41:12;15.30;99.90
19330;DHT22;9799;48.214;16.388;2023-08-07T12:44:34;15.30;99.90
19330;DHT22;9799;48.214;16.388;2023-08-07T12:47:56;15.30;99.90
19330;DHT22;9799;48.214;16.388;2023-08-07T12:51:17;15.30;99.90
19330;DHT22;9799;48.214;16.388;2023-08-07T12:54:39;15.40;99.90
19330;DHT22;9799;48.214;16.388;2023-08-07T12:58:00;15.40;99.90
19330;DHT22;9799;48.214;16.388;2023-08-07T13:01:22;15.60;99.90
19330;DHT22;9799;48.214;16.388;2023-08-07T13:04:43;15.60;99.90
19330;DHT22;9799;48.214;16.388;2023-08-07T13:08:04;15.60;99.90
19330;DHT22;9799;48.214;16.388;2023-08-07T13:11:27;15.60;99.90
19330;DHT22;9799;48.214;16.388;2023-08-07T13:14:48;15.80;99.90
19330;DHT22;9799;48.214;16.388;2023-08-07T13:18:09;15.90;99.90
19330;DHT22;9799;48.214;16.388;2023-08-07T13:21:30;16.00;99.90
19330;DHT22;9799;48.214;16.388;2023-08-07T13:24:51;16.20;99.90
19330;DHT22;9799;48.214;16.388;2023-08-07T13:28:14;16.40;99.90
19330;DHT22;9799;48.214;16.388;2023-08-07T13:31:36;16.60;99.90
19330;DHT22;9799;48.214;16.388;2023-08-07T13:34:57;16.50;99.90
19330;DHT22;9799;48.214;16.388;2023-08-07T13:38:18;16.50;99.90
19330;DHT22;9799;48.214;16.388;2023-08-07T13:41:39;16.50;99.90
19330;DHT22;9799;48.214;16.388;2023-08-07T13:45:02;16.50;99.90
19330;DHT22;9799;48.214;16.388;2023-08-07T13:48:24;16.50;99.90
19330;DHT22;9799;48.214;16.388;2023-08-07T13:51:48;16.40;99.90
19330;DHT22;9799;48.214;16.388;2023-08-07T13:55:10;16.40;99.90
19330;DHT22;9799;48.214;16.388;2023-08-07T13:58:33;16.40;99.90
19330;DHT22;9799;48.214;16.388;2023-08-07T14:01:57;16.40;99.90
19330;DHT22;9799;48.214;16.388;2023-08-07T14:05:19;16.60;99.90
19330;DHT22;9799;48.214;16.388;2023-08-07T14:08:42;17.00;99.90
19330;DHT22;9799;48.214;16.388;2023-08-07T14:12:05;17.20;99.90
19330;DHT22;9799;48.214;16.388;2023-08-07T14:15:28;17.30;99.90
19330;DHT22;9799;48.214;16.388;2023-08-07T14:18:52;17.30;99.90
19330;DHT22;9799;48.214;16.388;2023-08-07T14:22:13;17.20;99.90
19330;DHT22;9799;48.214;16.388;2023-08-07T14:25:34;17.10;99.90
19330;DHT22;9799;48.214;16.388;2023-08-07T14:28:56;16.90;99.90
19330;DHT22;9799;48.214;16.388;2023-08-07T14:32:17;16.80;99.90
19330;DHT22;9799;48.214;16.388;2023-08-07T14:35:39;16.70;99.90
19330;DHT22;9799;48.214;16.388;2023-08-07T14:39:00;16.70;99.90
19330;DHT22;9799;48.214;16.388;2023-08-07T14:42:22;16.60;99.90
19330;DHT22;9799;48.214;16.388;2023-08-07T14:45:43;16.70;99.90
19330;DHT22;9799;48.214;16.388;2023-08-07T14:49:04;16.70;99.90
19330;DHT22;9799;48.214;16.388;2023-08-07T14:52:27;16.80;99.90
19330;DHT22;9799;48.214;16.388;2023-08-07T14:55:48;16.70;99.90
19330;DHT22;9799;48.214;16.388;2023-08-07T14:59:09;16.80;99.90
19330;DHT22;9799;48.214;16.388;2023-08-07T15:02:30;16.70;99.90
19330;DHT22;9799;48.214;16.388;2023-08-07T15:05:52;16.90;99.90
19330;DHT22;9799;48.214;16.388;2023-08-07T15:09:14;16.90;99.90
19330;DHT22;9799;48.214;16.388;2023-08-07T15:12:36;16.90;99.90
19330;DHT22;9799;48.214;16.388;2023-08-07T15:15:58;17.00;99.90
19330;DHT22;9799;48.214;16.388;2023-08-07T15:19:19;17.20;99.90
19330;DHT22;9799;48.214;16.388;2023-08-07T15:22:40;17.30;99.90
19330;DHT22;9799;48.214;16.388;2023-08-07T15:26:03;17.40;99.90
19330;DHT22;9799;48.214;16.388;2023-08-07T15:29:24;17.50;99.90
19330;DHT22;9799;48.214;16.388;2023-08-07T15:32:45;17.40;99.90
19330;DHT22;9799;48.214;16.388;2023-08-07T15:36:07;17.40;99.90
19330;DHT22;9799;48.214;16.388;2023-08-07T15:39:28;17.50;99.90
19330;DHT22;9799;48.214;16.388;2023-08-07T15:42:51;17.60;99.90
19330;DHT22;9799;48.214;16.388;2023-08-07T15:46:13;17.70;99.90
19330;DHT22;9799;48.214;16.388;2023-08-07T15:49:35;17.80;99.90
19330;DHT22;9799;48.214;16.388;2023-08-07T15:52:56;17.80;99.90
19330;DHT22;9799;48.214;16.388;2023-08-07T15:56:18;17.80;99.90
19330;DHT22;9799;48.214;16.388;2023-08-07T15:59:41;17.90;99.90
19330;DHT22;9799;48.214;16.388;2023-08-07T16:03:03;17.90;99.90
19330;DHT22;9799;48.214;16.388;2023-08-07T16:06:26;17.90;99.90
19330;DHT22;9799;48.214;16.388;2023-08-07T16:09:47;17.70;99.90
19330;DHT22;9799;48.214;16.388;2023-08-07T16:13:09;17.80;99.90
19330;DHT22;9799;48.214;16.388;2023-08-07T16:16:31;17.80;99.90
19330;DHT22;9799;48.214;16.388;2023-08-07T16:19:54;17.80;99.90
19330;DHT22;9799;48.214;16.388;2023-08-07T16:23:16;17.80;99.90
19330;DHT22;9799;48.214;16.388;2023-08-07T16:26:37;17.90;99.90
19330;DHT22;9799;48.214;16.388;2023-08-07T16:30:01;17.90;99.90
19330;DHT22;9799;48.214;16.388;2023-08-07T16:33:26;17.80;99.90
19330;DHT22;9799;48.214;16.388;2023-08-07T16:36:47;17.60;99.90
19330;DHT22;9799;48.214;16.388;2023-08-07T16:40:10;17.60;99.90
19330;DHT22;9799;48.214;16.388;2023-08-07T16:43:32;17.60;99.90
19330;DHT22;9799;48.214;16.388;2023-08-07T16:46:54;17.60;99.90
19330;DHT22;9799;48.214;16.388;2023-08-07T16:50:17;17.60;99.90
19330;DHT22;9799;48.214;16.388;2023-08-07T16:53:39;17.60;99.90
19330;DHT22;9799;48.214;16.388;2023-08-07T16:57:02;17.60;99.90
19330;DHT22;9799;48.214;16.388;2023-08-07T17:00:24;17.60;99.90
19330;DHT22;9799;48.214;16.388;2023-08-07T17:03:46;17.70;99.90
19330;DHT22;9799;48.214;16.388;2023-08-07T17:07:10;17.70;99.90
19330;DHT22;9799;48.214;16.388;2023-08-07T17:10:32;17.60;99.90
19330;DHT22;9799;48.214;16.388;2023-08-07T17:13:54;17.60;99.90
19330;DHT22;9799;48.214;16.388;2023-08-07T17:17:16;17.70;99.90
19330;DHT22;9799;48.214;16.388;2023-08-07T17:20:37;17.70;99.90
19330;DHT22;9799;48.214;16.388;2023-08-07T17:24:01;17.70;99.90
19330;DHT22;9799;48.214;16.388;2023-08-07T17:27:23;17.70;99.90
19330;DHT22;9799;48.214;16.388;2023-08-07T17:30:45;17.70;99.90
19330;DHT22;9799;48.214;16.388;2023-08-07T17:34:06;17.70;99.90
19330;DHT22;9799;48.214;16.388;2023-08-07T17:37:29;17.60;99.90
19330;DHT22;9799;48.214;16.388;2023-08-07T17:40:53;17.60;99.90
19330;DHT22;9799;48.214;16.388;2023-08-07T17:44:15;17.50;99.90
19330;DHT22;9799;48.214;16.388;2023-08-07T17:47:37;17.50;99.90
19330;DHT22;9799;48.214;16.388;2023-08-07T17:50:59;17.50;99.90
19330;DHT22;9799;48.214;16.388;2023-08-07T17:54:22;17.50;99.90
19330;DHT22;9799;48.214;16.388;2023-08-07T17:57:45;17.50;99.90
19330;DHT22;9799;48.214;16.388;2023-08-07T18:01:08;17.40;99.90
19330;DHT22;9799;48.214;16.388;2023-08-07T18:04:30;17.40;99.90
19330;DHT22;9799;48.214;16.388;2023-08-07T18:07:53;17.40;99.90
19330;DHT22;9799;48.214;16.388;2023-08-07T18:11:15;17.30;99.90
19330;DHT22;9799;48.214;16.388;2023-08-07T18:14:38;17.30;99.90
19330;DHT22;9799;48.214;16.388;2023-08-07T18:18:00;17.30;99.90
19330;DHT22;9799;48.214;16.388;2023-08-07T18:21:22;17.30;99.90
19330;DHT22;9799;48.214;16.388;2023-08-07T18:24:44;17.30;99.90
19330;DHT22;9799;48.214;16.388;2023-08-07T18:28:06;17.30;99.90
19330;DHT22;9799;48.214;16.388;2023-08-07T18:31:32;17.20;99.90
19330;DHT22;9799;48.214;16.388;2023-08-07T18:34:54;17.20;99.90
19330;DHT22;9799;48.214;16.388;2023-08-07T18:38:16;17.20;99.90
19330;DHT22;9799;48.214;16.388;2023-08-07T18:41:40;17.10;99.90
19330;DHT22;9799;48.214;16.388;2023-08-07T18:45:03;17.10;99.90
19330;DHT22;9799;48.214;16.388;2023-08-07T18:48:27;17.10;99.90
19330;DHT22;9799;48.214;16.388;2023-08-07T18:51:51;17.10;99.90
19330;DHT22;9799;48.214;16.388;2023-08-07T18:55:14;17.10;99.90
19330;DHT22;9799;48.214;16.388;2023-08-07T18:58:36;17.10;99.90
19330;DHT22;9799;48.214;16.388;2023-08-07T19:01:58;17.10;99.90
19330;DHT22;9799;48.214;16.388;2023-08-07T19:05:22;17.00;99.90
19330;DHT22;9799;48.214;16.388;2023-08-07T19:08:45;17.00;99.90
19330;DHT22;9799;48.214;16.388;2023-08-07T19:12:08;17.00;99.90
19330;DHT22;9799;48.214;16.388;2023-08-07T19:15:29;16.90;99.90
19330;DHT22;9799;48.214;16.388;2023-08-07T19:18:51;16.90;99.90
19330;DHT22;9799;48.214;16.388;2023-08-07T19:22:16;16.90;99.90
19330;DHT22;9799;48.214;16.388;2023-08-07T19:25:38;16.90;99.90
19330;DHT22;9799;48.214;16.388;2023-08-07T19:29:01;16.80;99.90
19330;DHT22;9799;48.214;16.388;2023-08-07T19:32:25;16.80;99.90
19330;DHT22;9799;48.214;16.388;2023-08-07T19:35:47;16.70;99.90
19330;DHT22;9799;48.214;16.388;2023-08-07T19:39:14;16.70;99.90
19330;DHT22;9799;48.214;16.388;2023-08-07T19:42:37;16.70;99.90
19330;DHT22;9799;48.214;16.388;2023-08-07T19:45:59;16.60;99.90
19330;DHT22;9799;48.214;16.388;2023-08-07T19:49:21;16.60;99.90
19330;DHT22;9799;48.214;16.388;2023-08-07T19:52:44;16.60;99.90
19330;DHT22;9799;48.214;16.388;2023-08-07T19:56:08;16.50;99.90
19330;DHT22;9799;48.214;16.388;2023-08-07T19:59:30;16.50;99.90
19330;DHT22;9799;48.214;16.388;2023-08-07T20:02:51;16.50;99.90
19330;DHT22;9799;48.214;16.388;2023-08-07T20:06:14;16.50;99.90
19330;DHT22;9799;48.214;16.388;2023-08-07T20:09:35;16.50;99.90
19330;DHT22;9799;48.214;16.388;2023-08-07T20:13:00;16.50;99.90
19330;DHT22;9799;48.214;16.388;2023-08-07T20:16:22;16.40;99.90
19330;DHT22;9799;48.214;16.388;2023-08-07T20:19:45;16.40;99.90
19330;DHT22;9799;48.214;16.388;2023-08-07T20:23:07;16.40;99.90
19330;DHT22;9799;48.214;16.388;2023-08-07T20:26:29;16.30;99.90
19330;DHT22;9799;48.214;16.388;2023-08-07T20:29:53;16.30;99.90
19330;DHT22;9799;48.214;16.388;2023-08-07T20:33:15;16.30;99.90
19330;DHT22;9799;48.214;16.388;2023-08-07T20:36:37;16.30;99.90
19330;DHT22;9799;48.214;16.388;2023-08-07T20:40:00;16.20;99.90
19330;DHT22;9799;48.214;16.388;2023-08-07T20:43:21;16.20;99.90
19330;DHT22;9799;48.214;16.388;2023-08-07T20:46:44;16.20;99.90
19330;DHT22;9799;48.214;16.388;2023-08-07T20:50:06;16.20;99.90
19330;DHT22;9799;48.214;16.388;2023-08-07T20:53:28;16.20;99.90
19330;DHT22;9799;48.214;16.388;2023-08-07T20:56:49;16.20;99.90
19330;DHT22;9799;48.214;16.388;2023-08-07T21:00:11;16.20;99.90
19330;DHT22;9799;48.214;16.388;2023-08-07T21:03:34;16.20;99.90
19330;DHT22;9799;48.214;16.388;2023-08-07T21:06:55;16.10;99.90
19330;DHT22;9799;48.214;16.388;2023-08-07T21:10:17;16.00;99.90
19330;DHT22;9799;48.214;16.388;2023-08-07T21:13:38;16.00;99.90
19330;DHT22;9799;48.214;16.388;2023-08-07T21:16:59;16.00;99.90